createdAt,value
2019-02-12T00:07:11.797Z,97280.80
2019-02-12T00:09:40.234Z,97277.15
2019-02-12T00:12:08.625Z,97274.72
2019-02-12T00:14:37.015Z,97272.37
2019-02-12T00:17:24.761Z,97270.33
2019-02-12T00:19:53.203Z,97264.06
2019-02-12T00:22:21.566Z,97255.41
2019-02-12T00:24:49.994Z,97255.19
2019-02-12T00:27:18.485Z,97256.80
2019-02-12T00:29:46.949Z,97252.75
2019-02-12T00:34:48.927Z,97252.48
2019-02-12T00:39:51.775Z,97268.90
2019-02-12T00:42:20.362Z,97273.17
2019-02-12T00:44:48.737Z,97278.61
2019-02-12T00:47:17.139Z,97281.41
2019-02-12T00:52:21.187Z,97295.67
2019-02-12T00:54:49.574Z,97302.20
2019-02-12T00:57:17.971Z,97313.88
2019-02-12T00:59:46.407Z,97315.00
2019-02-12T01:02:14.801Z,97313.22
2019-02-12T01:04:43.202Z,97311.44
2019-02-12T01:07:11.623Z,97316.66
2019-02-12T01:09:40.098Z,97311.83
2019-02-12T01:12:08.488Z,97314.53
2019-02-12T01:17:10.893Z,97309.78
2019-02-12T01:19:39.283Z,97316.88
2019-02-12T01:24:41.675Z,97333.47
2019-02-12T01:29:43.685Z,97330.84
2019-02-12T01:32:12.098Z,97337.02
2019-02-12T01:34:40.507Z,97339.16
2019-02-12T01:37:08.907Z,97342.25
2019-02-12T01:39:37.307Z,97348.21
2019-02-12T01:42:24.879Z,97352.13
2019-02-12T01:44:53.287Z,97352.13
2019-02-12T01:47:21.681Z,97354.74
2019-02-12T01:49:50.135Z,97357.71
2019-02-12T01:52:18.533Z,97354.27
2019-02-12T01:54:46.970Z,97368.16
2019-02-12T01:59:49.841Z,97376.55
2019-02-12T02:02:37.668Z,97376.77
2019-02-12T02:05:45.969Z,97383.56
2019-02-12T02:08:33.637Z,97383.09
2019-02-12T02:11:02.031Z,97387.00
2019-02-12T02:13:30.428Z,97387.87
2019-02-12T02:15:58.861Z,97393.84
2019-02-12T02:18:46.499Z,97392.41
2019-02-12T02:21:14.994Z,97404.56
2019-02-12T02:24:02.646Z,97408.09
2019-02-12T02:26:31.085Z,97409.70
2019-02-12T02:28:59.499Z,97418.28
2019-02-12T02:31:27.891Z,97419.30
2019-02-12T02:36:30.293Z,97416.13
2019-02-12T02:39:18.070Z,97423.05
2019-02-12T02:41:46.477Z,97420.43
2019-02-12T02:44:14.889Z,97417.81
2019-02-12T02:46:43.312Z,97420.05
2019-02-12T02:49:11.694Z,97417.16
2019-02-12T02:51:40.092Z,97411.19
2019-02-12T02:54:08.500Z,97414.27
2019-02-12T02:56:48.748Z,97414.72
2019-02-12T02:59:07.016Z,97414.27
2019-02-12T03:04:09.789Z,97421.36
2019-02-12T03:06:38.233Z,97431.81
2019-02-12T03:09:46.549Z,97441.40
2019-02-12T03:12:14.974Z,97434.59
2019-02-12T03:14:43.381Z,97439.43
2019-02-12T03:17:11.840Z,97442.44
2019-02-12T03:19:40.262Z,97434.98
2019-02-12T03:22:08.647Z,97431.70
2019-02-12T03:24:37.043Z,97432.26
2019-02-12T03:27:05.497Z,97421.15
2019-02-12T03:29:33.896Z,97422.02
2019-02-12T03:32:02.291Z,97423.67
2019-02-12T03:34:30.950Z,97427.23
2019-02-12T03:36:59.341Z,97426.48
2019-02-12T03:39:27.745Z,97428.62
2019-02-12T03:41:56.297Z,97426.37
2019-02-12T03:44:24.746Z,97422.92
2019-02-12T03:46:53.127Z,97432.07
2019-02-12T03:49:21.561Z,97433.77
2019-02-12T03:51:49.961Z,97435.52
2019-02-12T03:54:18.425Z,97431.71
2019-02-12T03:56:47.074Z,97433.02
2019-02-12T03:59:15.464Z,97443.47
2019-02-12T04:01:43.864Z,97454.36
2019-02-12T04:04:12.563Z,97457.27
2019-02-12T04:06:40.989Z,97459.80
2019-02-12T04:09:09.378Z,97468.95
2019-02-12T04:11:37.812Z,97468.55
2019-02-12T04:14:06.193Z,97472.86
2019-02-12T04:16:34.614Z,97475.84
2019-02-12T04:19:03.195Z,97486.84
2019-02-12T04:21:31.609Z,97485.14
2019-02-12T04:24:00.009Z,97494.20
2019-02-12T04:26:28.431Z,97486.09
2019-02-12T04:28:56.832Z,97476.12
2019-02-12T04:31:25.230Z,97476.56
2019-02-12T04:33:53.662Z,97476.26
2019-02-12T04:36:22.065Z,97481.67
2019-02-12T04:38:50.470Z,97483.81
2019-02-12T04:41:18.881Z,97484.77
2019-02-12T04:43:47.280Z,97483.90
2019-02-12T04:46:15.757Z,97494.73
2019-02-12T04:48:44.205Z,97501.54
2019-02-12T04:51:12.601Z,97505.10
2019-02-12T04:53:40.998Z,97509.10
2019-02-12T04:56:09.579Z,97510.33
2019-02-12T04:58:38.005Z,97514.98
2019-02-12T05:01:06.403Z,97510.59
2019-02-12T05:03:34.865Z,97511.91
2019-02-12T05:06:03.245Z,97523.19
2019-02-12T05:08:40.531Z,97517.96
2019-02-12T05:11:09.208Z,97530.47
2019-02-12T05:13:37.590Z,97525.63
2019-02-12T05:16:06.148Z,97527.02
2019-02-12T05:18:34.547Z,97531.61
2019-02-12T05:21:02.935Z,97534.02
2019-02-12T05:23:32.989Z,97541.86
2019-02-12T05:26:01.420Z,97541.70
2019-02-12T05:28:29.779Z,97542.64
2019-02-12T05:30:58.223Z,97537.61
2019-02-12T05:33:26.600Z,97545.64
2019-02-12T05:35:55.000Z,97539.58
2019-02-12T05:38:23.430Z,97546.95
2019-02-12T05:40:51.826Z,97551.06
2019-02-12T05:43:20.240Z,97547.23
2019-02-12T05:45:48.651Z,97555.15
2019-02-12T05:48:17.056Z,97548.62
2019-02-12T05:50:45.467Z,97543.03
2019-02-12T05:53:13.909Z,97544.03
2019-02-12T05:55:42.306Z,97543.92
2019-02-12T05:58:10.707Z,97545.42
2019-02-12T06:00:39.191Z,97565.84
2019-02-12T06:03:07.592Z,97554.17
2019-02-12T06:05:36.018Z,97556.98
2019-02-12T06:08:04.859Z,97557.45
2019-02-12T06:10:33.251Z,97555.28
2019-02-12T06:13:01.644Z,97563.98
2019-02-12T06:15:30.079Z,97563.50
2019-02-12T06:17:58.473Z,97560.98
2019-02-12T06:20:26.865Z,97560.22
2019-02-12T06:23:03.485Z,97566.67
2019-02-12T06:25:25.485Z,97561.65
2019-02-12T06:27:53.935Z,97558.01
2019-02-12T06:30:22.300Z,97558.48
2019-02-12T06:32:50.698Z,97558.56
2019-02-12T06:35:19.090Z,97559.39
2019-02-12T06:37:47.650Z,97572.02
2019-02-12T06:40:16.038Z,97574.91
2019-02-12T06:42:44.426Z,97577.87
2019-02-12T06:45:13.969Z,97591.33
2019-02-12T06:47:42.354Z,97601.22
2019-02-12T06:50:12.182Z,97599.92
2019-02-12T06:52:40.773Z,97600.67
2019-02-12T06:55:11.098Z,97599.84
2019-02-12T06:57:39.487Z,97603.09
2019-02-12T07:00:15.541Z,97609.06
2019-02-12T07:03:12.119Z,97607.20
2019-02-12T07:05:52.745Z,97610.20
2019-02-12T07:08:39.258Z,97613.06
2019-02-12T07:11:19.777Z,97608.70
2019-02-12T07:13:54.123Z,97614.37
2019-02-12T07:16:25.993Z,97633.52
2019-02-12T07:19:03.068Z,97626.05
2019-02-12T07:21:34.625Z,97632.86
2019-02-12T07:24:14.974Z,97633.25
2019-02-12T07:27:05.874Z,97633.45
2019-02-12T07:29:58.232Z,97643.63
2019-02-12T07:32:38.315Z,97648.48
2019-02-12T07:35:28.914Z,97659.62
2019-02-12T07:38:00.551Z,97663.34
2019-02-12T07:40:34.845Z,97655.30
2019-02-12T07:43:09.073Z,97664.33
2019-02-12T07:46:14.124Z,97671.13
2019-02-12T07:48:54.898Z,97675.76
2019-02-12T07:51:53.760Z,97679.00
2019-02-12T07:54:27.989Z,97682.84
2019-02-12T07:57:14.411Z,97678.09
2019-02-12T07:59:57.473Z,97679.55
2019-02-12T08:02:34.459Z,97689.16
2019-02-12T08:05:08.787Z,97692.17
2019-02-12T08:07:52.361Z,97691.97
2019-02-12T08:10:26.796Z,97702.30
2019-02-12T08:13:04.107Z,97702.52
2019-02-12T08:15:35.715Z,97704.50
2019-02-12T08:18:21.823Z,97708.26
2019-02-12T08:21:13.739Z,97715.75
2019-02-12T08:24:02.966Z,97722.02
2019-02-12T08:26:56.162Z,97728.55
2019-02-12T08:29:55.181Z,97722.41
2019-02-12T08:32:43.984Z,97734.33
2019-02-12T08:35:57.001Z,97744.78
2019-02-12T08:38:48.757Z,97754.03
2019-02-12T08:41:22.964Z,97758.94
2019-02-12T08:43:54.522Z,97768.95
2019-02-12T08:46:41.229Z,97774.62
2019-02-12T08:49:18.577Z,97776.39
2019-02-12T08:51:50.027Z,97774.62
2019-02-12T08:54:44.471Z,97772.48
2019-02-12T08:57:21.845Z,97773.10
2019-02-12T09:00:10.208Z,97778.81
2019-02-12T09:03:14.347Z,97770.14
2019-02-12T09:05:45.834Z,97778.45
2019-02-12T09:08:23.020Z,97771.63
2019-02-12T09:11:03.353Z,97770.98
2019-02-12T09:13:37.327Z,97779.81
2019-02-12T09:16:20.919Z,97775.72
2019-02-12T09:19:01.236Z,97779.69
2019-02-12T09:21:35.737Z,97776.58
2019-02-12T09:24:36.059Z,97779.61
2019-02-12T09:27:10.287Z,97776.65
2019-02-12T09:29:53.531Z,97781.92
2019-02-12T09:32:39.504Z,97779.98
2019-02-12T09:35:19.843Z,97783.98
2019-02-12T09:37:53.853Z,97788.46
2019-02-12T09:40:34.211Z,97785.84
2019-02-12T09:43:14.054Z,97790.25
2019-02-12T09:45:57.644Z,97790.73
2019-02-12T09:48:38.493Z,97786.93
2019-02-12T09:51:09.944Z,97786.11
2019-02-12T09:53:59.113Z,97789.39
2019-02-12T09:56:46.977Z,97787.38
2019-02-12T09:59:24.250Z,97792.25
2019-02-12T10:01:58.361Z,97794.91
2019-02-12T10:04:44.430Z,97793.13
2019-02-12T10:07:30.855Z,97791.31
2019-02-12T10:10:11.088Z,97796.65
2019-02-12T10:12:45.280Z,97804.58
2019-02-12T10:15:16.762Z,97799.70
2019-02-12T10:18:06.725Z,97799.47
2019-02-12T10:20:50.646Z,97806.36
2019-02-12T10:23:27.626Z,97805.37
2019-02-12T10:25:59.164Z,97815.64
2019-02-12T10:29:00.837Z,97813.97
2019-02-12T10:31:29.247Z,97811.23
2019-02-12T10:33:57.635Z,97819.09
2019-02-12T10:36:26.039Z,97809.17
2019-02-12T10:38:54.593Z,97819.45
2019-02-12T10:41:22.993Z,97810.56
2019-02-12T10:43:51.400Z,97811.40
2019-02-12T10:46:19.945Z,97811.16
2019-02-12T10:48:48.347Z,97810.69
2019-02-12T10:51:16.747Z,97811.72
2019-02-12T10:53:45.192Z,97813.81
2019-02-12T10:56:13.583Z,97811.98
2019-02-12T10:58:41.991Z,97805.36
2019-02-12T11:01:10.823Z,97807.78
2019-02-12T11:03:39.219Z,97800.52
2019-02-12T11:06:07.611Z,97804.72
2019-02-12T11:08:36.040Z,97806.86
2019-02-12T11:11:04.506Z,97809.59
2019-02-12T11:13:32.963Z,97815.66
2019-02-12T11:16:01.514Z,97804.16
2019-02-12T11:18:29.903Z,97810.80
2019-02-12T11:20:58.295Z,97809.12
2019-02-12T11:23:26.941Z,97807.73
2019-02-12T11:25:55.333Z,97800.52
2019-02-12T11:28:23.730Z,97805.20
2019-02-12T11:30:52.161Z,97811.27
2019-02-12T11:33:20.558Z,97817.34
2019-02-12T11:35:49.044Z,97817.34
2019-02-12T11:38:17.618Z,97819.36
2019-02-12T11:40:46.013Z,97825.35
2019-02-12T11:43:14.453Z,97823.68
2019-02-12T11:45:42.905Z,97820.70
2019-02-12T11:48:11.303Z,97822.02
2019-02-12T11:50:39.701Z,97817.06
2019-02-12T11:53:08.167Z,97819.20
2019-02-12T11:55:36.562Z,97812.73
2019-02-12T11:58:04.959Z,97817.73
2019-02-12T12:00:35.029Z,97814.63
2019-02-12T12:03:03.437Z,97815.47
2019-02-12T12:05:31.829Z,97816.22
2019-02-12T12:08:00.417Z,97816.22
2019-02-12T12:10:28.891Z,97815.00
2019-02-12T12:12:57.280Z,97811.07
2019-02-12T12:15:25.740Z,97814.83
2019-02-12T12:17:54.143Z,97808.56
2019-02-12T12:20:22.543Z,97809.91
2019-02-12T12:25:38.947Z,97798.22
2019-02-12T12:28:07.738Z,97796.29
2019-02-12T12:30:36.213Z,97796.66
2019-02-12T12:33:04.608Z,97787.31
2019-02-12T12:35:33.065Z,97796.65
2019-02-12T12:38:01.442Z,97798.27
2019-02-12T12:40:29.837Z,97803.05
2019-02-12T12:42:58.277Z,97806.95
2019-02-12T12:45:26.749Z,97809.12
2019-02-12T12:47:55.153Z,97803.23
2019-02-12T12:50:23.611Z,97809.39
2019-02-12T12:52:52.684Z,97809.30
2019-02-12T12:55:21.190Z,97815.94
2019-02-12T12:57:49.656Z,97816.59
2019-02-12T13:00:18.189Z,97820.53
2019-02-12T13:05:34.268Z,97831.01
2019-02-12T13:08:02.669Z,97824.27
2019-02-12T13:10:31.059Z,97829.51
2019-02-12T13:12:59.596Z,97832.88
2019-02-12T13:15:28.023Z,97835.86
2019-02-12T13:17:56.400Z,97833.35
2019-02-12T13:20:25.169Z,97842.61
2019-02-12T13:22:53.569Z,97841.02
2019-02-12T13:25:21.973Z,97841.38
2019-02-12T13:27:50.492Z,97835.67
2019-02-12T13:30:19.826Z,97834.66
2019-02-12T13:32:48.226Z,97831.92
2019-02-12T13:35:16.796Z,97833.80
2019-02-12T13:37:45.197Z,97837.53
2019-02-12T13:40:14.134Z,97846.62
2019-02-12T13:42:43.034Z,97846.91
2019-02-12T13:45:16.312Z,97856.23
2019-02-12T13:47:44.795Z,97863.62
2019-02-12T13:50:13.767Z,97858.58
2019-02-12T13:52:42.156Z,97865.30
2019-02-12T13:55:16.997Z,97874.82
2019-02-12T13:57:41.645Z,97863.56
2019-02-12T14:00:19.135Z,97869.25
2019-02-12T14:02:47.672Z,97870.75
2019-02-12T14:05:23.922Z,97875.11
2019-02-12T14:07:52.382Z,97882.72
2019-02-12T14:10:20.877Z,97883.11
2019-02-12T14:12:49.352Z,97880.48
2019-02-12T14:15:17.750Z,97884.48
2019-02-12T14:17:46.301Z,97881.86
2019-02-12T14:20:18.244Z,97885.23
2019-02-12T14:22:46.628Z,97888.41
2019-02-12T14:25:16.039Z,97880.48
2019-02-12T14:27:45.288Z,97877.94
2019-02-12T14:30:18.280Z,97888.48
2019-02-12T14:32:46.666Z,97885.87
2019-02-12T14:35:15.255Z,97886.62
2019-02-12T14:37:43.664Z,97890.07
2019-02-12T14:40:14.084Z,97888.69
2019-02-12T14:42:42.547Z,97894.31
2019-02-12T14:45:19.085Z,97896.82
2019-02-12T14:47:47.476Z,97893.29
2019-02-12T14:50:18.192Z,97893.01
2019-02-12T14:52:46.632Z,97889.84
2019-02-12T14:55:15.029Z,97896.11
2019-02-12T14:57:43.423Z,97889.77
2019-02-12T15:00:17.138Z,97897.55
2019-02-12T15:02:45.601Z,97893.70
2019-02-12T15:05:14.141Z,97901.55
2019-02-12T15:07:42.700Z,97899.95
2019-02-12T15:10:15.239Z,97905.19
2019-02-12T15:12:43.713Z,97897.81
2019-02-12T15:15:12.524Z,97896.51
2019-02-12T15:17:41.088Z,97895.56
2019-02-12T15:20:13.145Z,97899.13
2019-02-12T15:22:41.974Z,97894.05
2019-02-12T15:25:13.509Z,97893.77
2019-02-12T15:27:42.087Z,97894.31
2019-02-12T15:30:17.912Z,97897.64
2019-02-12T15:32:46.476Z,97894.73
2019-02-12T15:35:14.885Z,97891.25
2019-02-12T15:37:43.298Z,97890.50
2019-02-12T15:40:17.524Z,97898.45
2019-02-12T15:42:45.976Z,97900.28
2019-02-12T15:45:16.873Z,97902.89
2019-02-12T15:47:45.272Z,97905.85
2019-02-12T15:50:13.675Z,97904.73
2019-02-12T15:52:42.383Z,97902.88
2019-02-12T15:55:12.839Z,97899.31
2019-02-12T15:57:45.161Z,97901.93
2019-02-12T16:00:18.601Z,97905.41
2019-02-12T16:02:47.162Z,97903.23
2019-02-12T16:05:15.503Z,97909.33
2019-02-12T16:07:45.198Z,97906.03
2019-02-12T16:10:19.680Z,97908.33
2019-02-12T16:12:49.476Z,97907.97
2019-02-12T16:15:21.896Z,97907.76
2019-02-12T16:17:49.697Z,97907.84
2019-02-12T16:20:18.209Z,97912.66
2019-02-12T16:22:46.608Z,97915.28
2019-02-12T16:25:15.595Z,97924.07
2019-02-12T16:27:44.043Z,97918.55
2019-02-12T16:30:15.224Z,97918.55
2019-02-12T16:32:43.683Z,97920.22
2019-02-12T16:35:18.629Z,97919.75
2019-02-12T16:37:47.101Z,97925.45
2019-02-12T16:40:16.833Z,97922.55
2019-02-12T16:42:45.332Z,97926.00
2019-02-12T16:45:25.761Z,97933.77
2019-02-12T16:47:54.329Z,97936.38
2019-02-12T16:50:22.730Z,97939.83
2019-02-12T16:52:51.126Z,97942.52
2019-02-12T16:55:19.568Z,97952.43
2019-02-12T16:57:47.953Z,97959.91
2019-02-12T17:00:17.852Z,97958.68
2019-02-12T17:02:46.779Z,97959.08
2019-02-12T17:05:15.636Z,97954.68
2019-02-12T17:07:45.273Z,97971.68
2019-02-12T17:10:14.555Z,97973.45
2019-02-12T17:12:43.137Z,97969.06
2019-02-12T17:15:12.941Z,97975.52
2019-02-12T17:17:41.530Z,97985.88
2019-02-12T17:20:23.591Z,97986.74
2019-02-12T17:22:52.201Z,97996.19
2019-02-12T17:25:21.060Z,98003.13
2019-02-12T17:27:49.586Z,98003.20
2019-02-12T17:30:18.728Z,98010.57
2019-02-12T17:32:47.261Z,98014.89
2019-02-12T17:35:15.727Z,98021.58
2019-02-12T17:37:44.169Z,98023.79
2019-02-12T17:40:17.139Z,98028.11
2019-02-12T17:42:45.530Z,98025.97
2019-02-12T17:45:15.490Z,98029.13
2019-02-12T17:47:43.889Z,98034.03
2019-02-12T17:50:14.210Z,98042.81
2019-02-12T17:52:43.398Z,98043.03
2019-02-12T17:55:12.228Z,98054.90
2019-02-12T17:57:40.709Z,98051.52
2019-02-12T18:00:13.381Z,98060.73
2019-02-12T18:02:43.513Z,98054.74
2019-02-12T18:05:11.982Z,98066.11
2019-02-12T18:07:40.424Z,98065.27
2019-02-12T18:10:10.766Z,98066.65
2019-02-12T18:12:39.238Z,98068.90
2019-02-12T18:15:12.578Z,98068.97
2019-02-12T18:17:41.043Z,98066.89
2019-02-12T18:20:14.867Z,98068.27
2019-02-12T18:22:43.317Z,98071.80
2019-02-12T18:25:11.795Z,98077.19
2019-02-12T18:27:41.027Z,98070.19
2019-02-12T18:30:16.766Z,98078.03
2019-02-12T18:32:45.233Z,98075.95
2019-02-12T18:35:13.964Z,98082.96
2019-02-12T18:37:42.886Z,98085.58
2019-02-12T18:40:14.327Z,98089.49
2019-02-12T18:42:42.728Z,98089.93
2019-02-12T18:45:14.025Z,98092.11
2019-02-12T18:47:42.504Z,98096.03
2019-02-12T18:50:12.146Z,98088.63
2019-02-12T18:52:40.754Z,98096.94
2019-02-12T18:55:11.497Z,98095.80
2019-02-12T18:57:39.979Z,98102.33
2019-02-12T19:00:19.572Z,98096.23
2019-02-12T19:02:48.047Z,98100.55
2019-02-12T19:05:16.589Z,98099.72
2019-02-12T19:07:45.025Z,98109.40
2019-02-12T19:10:17.530Z,98104.17
2019-02-12T19:12:46.225Z,98111.48
2019-02-12T19:15:22.234Z,98109.09
2019-02-12T19:18:05.979Z,98112.84
2019-02-12T19:20:34.766Z,98109.79
2019-02-12T19:23:03.182Z,98112.84
2019-02-12T19:25:31.581Z,98120.25
2019-02-12T19:28:00.225Z,98119.23
2019-02-12T19:30:28.617Z,98113.54
2019-02-12T19:32:57.017Z,98116.22
2019-02-12T19:35:25.653Z,98117.77
2019-02-12T19:37:54.049Z,98123.77
2019-02-12T19:40:22.466Z,98131.07
2019-02-12T19:42:50.905Z,98127.22
2019-02-12T19:45:19.314Z,98129.39
2019-02-12T19:47:47.715Z,98130.60
2019-02-12T19:50:16.542Z,98132.30
2019-02-12T19:52:44.950Z,98127.38
2019-02-12T19:55:13.348Z,98132.61
2019-02-12T19:57:42.124Z,98134.31
2019-02-12T20:00:20.757Z,98140.38
2019-02-12T20:02:50.819Z,98138.60
2019-02-12T20:05:19.662Z,98139.54
2019-02-12T20:07:48.054Z,98135.08
2019-02-12T20:10:17.052Z,98142.16
2019-02-12T20:12:45.446Z,98143.59
2019-02-12T20:15:16.328Z,98147.69
2019-02-12T20:17:44.882Z,98146.38
2019-02-12T20:20:13.649Z,98145.45
2019-02-12T20:22:42.129Z,98146.21
2019-02-12T20:25:11.871Z,98146.08
2019-02-12T20:27:40.331Z,98139.98
2019-02-12T20:30:16.916Z,98145.74
2019-02-12T20:32:45.319Z,98138.07
2019-02-12T20:35:19.044Z,98139.08
2019-02-12T20:37:47.477Z,98143.00
2019-02-12T20:40:15.877Z,98136.06
2019-02-12T20:42:44.330Z,98131.14
2019-02-12T20:45:16.739Z,98128.69
2019-02-12T20:47:45.204Z,98130.62
2019-02-12T20:50:18.506Z,98125.39
2019-02-12T20:52:46.904Z,98127.07
2019-02-12T20:55:15.311Z,98128.77
2019-02-12T20:57:43.842Z,98144.32
2019-02-12T21:00:14.834Z,98149.15
2019-02-12T21:02:43.243Z,98147.30
2019-02-12T21:05:13.679Z,98146.94
2019-02-12T21:07:42.109Z,98143.38
2019-02-12T21:10:19.009Z,98138.16
2019-02-12T21:12:47.884Z,98132.92
2019-02-12T21:15:30.145Z,98136.48
2019-02-12T21:17:58.703Z,98132.63
2019-02-12T21:20:27.115Z,98140.54
2019-02-12T21:22:56.388Z,98134.38
2019-02-12T21:25:24.818Z,98127.32
2019-02-12T21:27:53.216Z,98125.75
2019-02-12T21:30:24.124Z,98127.59
2019-02-12T21:32:52.725Z,98136.44
2019-02-12T21:35:21.189Z,98134.06
2019-02-12T21:37:49.582Z,98135.50
2019-02-12T21:40:37.347Z,98138.25
2019-02-12T21:43:05.741Z,98134.19
2019-02-12T21:45:34.146Z,98137.78
2019-02-12T21:48:15.148Z,98139.16
2019-02-12T21:50:43.552Z,98138.72
2019-02-12T21:53:11.947Z,98141.09
2019-02-12T21:55:40.375Z,98134.03
2019-02-12T22:03:30.621Z,98136.94
2019-02-12T22:08:32.953Z,98142.87
2019-02-12T22:11:01.348Z,98138.65
2019-02-12T22:13:29.765Z,98142.47
2019-02-12T22:15:58.169Z,98129.03
2019-02-12T22:18:26.627Z,98126.42
2019-02-12T22:23:29.013Z,98124.55
2019-02-12T22:25:57.409Z,98134.76
2019-02-12T22:31:00.277Z,98141.35
2019-02-12T22:36:02.653Z,98141.05
2019-02-12T22:41:04.999Z,98138.50
2019-02-12T22:43:33.406Z,98135.52
2019-02-12T22:46:01.833Z,98136.05
2019-02-12T22:48:30.243Z,98134.69
2019-02-12T22:51:10.990Z,98138.06
2019-02-12T22:53:39.382Z,98141.58
2019-02-12T22:56:07.802Z,98134.41
2019-02-12T23:01:50.585Z,98135.13
2019-02-12T23:04:19.056Z,98131.08
2019-02-12T23:06:47.431Z,98136.66
2019-02-12T23:15:00.286Z,98136.95
2019-02-12T23:17:30.299Z,98139.40
2019-02-12T23:19:58.729Z,98140.17
2019-02-12T23:25:01.306Z,98129.42
2019-02-12T23:27:29.734Z,98126.41
2019-02-12T23:29:58.129Z,98133.03
2019-02-12T23:32:26.572Z,98131.73
2019-02-12T23:34:57.159Z,98132.16
2019-02-12T23:37:25.140Z,98133.03
2019-02-12T23:39:53.537Z,98131.73
2019-02-12T23:47:51.057Z,98128.47
2019-02-12T23:52:53.518Z,98116.84
2019-02-12T23:58:16.906Z,98110.00
